sensor_id;sensor_type;location;lat;lon;timestamp;pressure;altitude;pressure_sealevel;temperature;humidity
73692;BME280;61996;49.910;35.562;2023-02-28T00:02:55;100050.81;;;20.41;36.28
73692;BME280;61996;49.910;35.562;2023-02-28T00:06:04;100043.22;;;20.36;36.15
73692;BME280;61996;49.910;35.562;2023-02-28T00:09:07;100043.09;;;20.38;35.95
73692;BME280;61996;49.910;35.562;2023-02-28T00:12:10;100039.00;;;20.34;36.30
73692;BME280;61996;49.910;35.562;2023-02-28T00:15:12;100041.97;;;20.31;36.25
73692;BME280;61996;49.910;35.562;2023-02-28T00:18:15;100037.19;;;20.24;36.35
73692;BME280;61996;49.910;35.562;2023-02-28T00:21:20;100037.44;;;20.21;36.40
73692;BME280;61996;49.910;35.562;2023-02-28T00:24:24;100030.41;;;20.20;36.23
73692;BME280;61996;49.910;35.562;2023-02-28T00:27:27;100036.59;;;20.21;36.31
73692;BME280;61996;49.910;35.562;2023-02-28T00:30:31;100033.78;;;20.22;36.18
73692;BME280;61996;49.910;35.562;2023-02-28T00:33:34;100037.44;;;20.21;35.98
73692;BME280;61996;49.910;35.562;2023-02-28T00:36:39;100034.06;;;20.19;36.16
73692;BME280;61996;49.910;35.562;2023-02-28T00:39:42;100041.09;;;20.20;36.08
73692;BME280;61996;49.910;35.562;2023-02-28T00:42:45;100042.06;;;20.19;36.16
73692;BME280;61996;49.910;35.562;2023-02-28T00:45:48;100039.56;;;20.18;36.05
73692;BME280;61996;49.910;35.562;2023-02-28T00:48:51;100046.72;;;20.17;36.08
73692;BME280;61996;49.910;35.562;2023-02-28T00:51:55;100047.13;;;20.13;36.09
73692;BME280;61996;49.910;35.562;2023-02-28T00:54:58;100061.91;;;20.17;36.05
73692;BME280;61996;49.910;35.562;2023-02-28T00:58:00;100062.16;;;20.14;35.88
73692;BME280;61996;49.910;35.562;2023-02-28T01:01:03;100061.59;;;20.10;36.21
73692;BME280;61996;49.910;35.562;2023-02-28T01:04:06;100065.22;;;20.09;36.16
73692;BME280;61996;49.910;35.562;2023-02-28T01:07:11;100060.88;;;20.08;36.17
73692;BME280;61996;49.910;35.562;2023-02-28T01:10:14;100070.19;;;20.23;35.89
73692;BME280;61996;49.910;35.562;2023-02-28T01:13:17;100073.28;;;20.29;35.81
73692;BME280;61996;49.910;35.562;2023-02-28T01:16:20;100079.78;;;20.36;35.72
73692;BME280;61996;49.910;35.562;2023-02-28T01:19:23;100070.38;;;20.41;35.54
73692;BME280;61996;49.910;35.562;2023-02-28T01:22:30;100070.28;;;20.52;35.33
73692;BME280;61996;49.910;35.562;2023-02-28T01:25:33;100077.44;;;20.62;35.27
73692;BME280;61996;49.910;35.562;2023-02-28T01:28:36;100074.06;;;20.69;35.15
73692;BME280;61996;49.910;35.562;2023-02-28T01:31:39;100083.50;;;20.73;34.89
73692;BME280;61996;49.910;35.562;2023-02-28T01:34:42;100080.69;;;20.75;34.83
73692;BME280;61996;49.910;35.562;2023-02-28T01:37:48;100090.25;;;20.77;34.86
73692;BME280;61996;49.910;35.562;2023-02-28T01:40:51;100079.56;;;20.77;35.04
73692;BME280;61996;49.910;35.562;2023-02-28T01:43:57;100086.75;;;20.77;34.92
73692;BME280;61996;49.910;35.562;2023-02-28T01:47:01;100087.19;;;20.72;35.01
73692;BME280;61996;49.910;35.562;2023-02-28T01:50:06;100091.78;;;20.70;35.34
73692;BME280;61996;49.910;35.562;2023-02-28T01:53:12;100090.13;;;20.69;35.17
73692;BME280;61996;49.910;35.562;2023-02-28T01:56:21;100094.03;;;20.65;35.25
73692;BME280;61996;49.910;35.562;2023-02-28T01:59:27;100097.69;;;20.64;35.37
73692;BME280;61996;49.910;35.562;2023-02-28T02:02:32;100107.00;;;20.60;35.39
73692;BME280;61996;49.910;35.562;2023-02-28T02:05:35;100109.09;;;20.57;35.33
73692;BME280;61996;49.910;35.562;2023-02-28T02:08:40;100109.50;;;20.52;35.39
73692;BME280;61996;49.910;35.562;2023-02-28T02:11:43;100117.09;;;20.47;35.54
73692;BME280;61996;49.910;35.562;2023-02-28T02:14:50;100126.47;;;20.41;35.74
73692;BME280;61996;49.910;35.562;2023-02-28T02:17:56;100129.97;;;20.42;35.55
73692;BME280;61996;49.910;35.562;2023-02-28T02:31:27;100125.03;;;20.27;35.64
73692;BME280;61996;49.910;35.562;2023-02-28T02:34:39;100134.16;;;20.25;35.77
73692;BME280;61996;49.910;35.562;2023-02-28T02:37:44;100132.59;;;20.22;35.85
73692;BME280;61996;49.910;35.562;2023-02-28T02:40:54;100149.03;;;20.18;35.84
73692;BME280;61996;49.910;35.562;2023-02-28T02:44:01;100149.72;;;20.10;35.72
73692;BME280;61996;49.910;35.562;2023-02-28T02:47:06;100144.47;;;20.09;35.91
73692;BME280;61996;49.910;35.562;2023-02-28T02:50:13;100144.75;;;20.06;35.96
73692;BME280;61996;49.910;35.562;2023-02-28T02:53:17;100147.56;;;20.04;35.95
73692;BME280;61996;49.910;35.562;2023-02-28T02:56:23;100142.22;;;20.04;35.92
73692;BME280;61996;49.910;35.562;2023-02-28T02:59:27;100153.91;;;20.03;35.78
73692;BME280;61996;49.910;35.562;2023-02-28T03:02:32;100148.56;;;20.03;35.69
73692;BME280;61996;49.910;35.562;2023-02-28T03:05:39;100156.69;;;20.02;35.78
73692;BME280;61996;49.910;35.562;2023-02-28T03:08:44;100153.03;;;20.03;35.79
73692;BME280;61996;49.910;35.562;2023-02-28T03:11:48;100148.94;;;19.98;35.69
73692;BME280;61996;49.910;35.562;2023-02-28T03:14:55;100158.78;;;19.98;35.83
73692;BME280;61996;49.910;35.562;2023-02-28T03:18:01;100168.63;;;19.97;35.81
73692;BME280;61996;49.910;35.562;2023-02-28T03:21:12;100172.69;;;20.02;35.91
73692;BME280;61996;49.910;35.562;2023-02-28T03:24:19;100173.13;;;19.97;35.89
73692;BME280;61996;49.910;35.562;2023-02-28T03:27:26;100171.97;;;19.90;36.06
73692;BME280;61996;49.910;35.562;2023-02-28T03:30:33;100175.47;;;19.90;36.11
73692;BME280;61996;49.910;35.562;2023-02-28T03:33:38;100175.47;;;19.90;35.86
73692;BME280;61996;49.910;35.562;2023-02-28T03:36:45;100178.28;;;19.89;36.01
73692;BME280;61996;49.910;35.562;2023-02-28T03:39:51;100169.53;;;19.87;35.74
73692;BME280;61996;49.910;35.562;2023-02-28T03:42:58;100168.69;;;19.86;35.86
73692;BME280;61996;49.910;35.562;2023-02-28T03:46:02;100168.81;;;19.85;35.80
73692;BME280;61996;49.910;35.562;2023-02-28T03:49:09;100163.75;;;19.82;35.82
73692;BME280;61996;49.910;35.562;2023-02-28T03:52:15;100169.34;;;19.79;35.84
73692;BME280;61996;49.910;35.562;2023-02-28T03:55:21;100156.28;;;19.76;35.94
73692;BME280;61996;49.910;35.562;2023-02-28T03:58:25;100161.88;;;19.73;36.01
73692;BME280;61996;49.910;35.562;2023-02-28T04:01:37;100148.81;;;19.69;36.18
73692;BME280;61996;49.910;35.562;2023-02-28T04:04:42;100145.94;;;19.82;35.71
73692;BME280;61996;49.910;35.562;2023-02-28T04:07:51;100157.31;;;19.84;35.71
73692;BME280;61996;49.910;35.562;2023-02-28T04:10:58;100141.31;;;19.94;35.46
73692;BME280;61996;49.910;35.562;2023-02-28T04:14:03;100143.06;;;20.05;35.24
73692;BME280;61996;49.910;35.562;2023-02-28T04:17:06;100146.47;;;20.16;35.15
73692;BME280;61996;49.910;35.562;2023-02-28T04:20:10;100141.03;;;20.27;35.03
73692;BME280;61996;49.910;35.562;2023-02-28T04:23:14;100135.88;;;20.36;34.73
73692;BME280;61996;49.910;35.562;2023-02-28T04:26:18;100150.50;;;20.41;34.56
73692;BME280;61996;49.910;35.562;2023-02-28T04:29:21;100153.22;;;20.51;34.45
73692;BME280;61996;49.910;35.562;2023-02-28T04:32:24;100150.44;;;20.52;34.56
73692;BME280;61996;49.910;35.562;2023-02-28T04:35:27;100142.81;;;20.58;34.36
73692;BME280;61996;49.910;35.562;2023-02-28T04:38:33;100159.72;;;20.58;34.35
73692;BME280;61996;49.910;35.562;2023-02-28T04:41:36;100159.59;;;20.60;34.36
73692;BME280;61996;49.910;35.562;2023-02-28T04:44:40;100157.34;;;20.65;34.41
73692;BME280;61996;49.910;35.562;2023-02-28T04:47:43;100157.63;;;20.71;34.36
73692;BME280;61996;49.910;35.562;2023-02-28T04:50:46;100167.47;;;20.71;34.26
73692;BME280;61996;49.910;35.562;2023-02-28T04:53:51;100177.19;;;20.72;34.23
73692;BME280;61996;49.910;35.562;2023-02-28T04:56:54;100179.44;;;20.76;34.22
73692;BME280;61996;49.910;35.562;2023-02-28T04:59:57;100198.44;;;20.73;34.23
73692;BME280;61996;49.910;35.562;2023-02-28T05:03:00;100202.09;;;20.72;34.25
73692;BME280;61996;49.910;35.562;2023-02-28T05:06:02;100193.94;;;20.74;34.48
73692;BME280;61996;49.910;35.562;2023-02-28T05:09:11;100206.47;;;20.73;34.25
73692;BME280;61996;49.910;35.562;2023-02-28T05:12:13;100215.72;;;20.69;34.44
73692;BME280;61996;49.910;35.562;2023-02-28T05:15:17;100215.03;;;20.67;34.52
73692;BME280;61996;49.910;35.562;2023-02-28T05:18:24;100218.25;;;20.61;34.61
73692;BME280;61996;49.910;35.562;2023-02-28T05:21:27;100215.81;;;20.58;34.66
73692;BME280;61996;49.910;35.562;2023-02-28T05:24:33;100221.59;;;20.53;34.83
73692;BME280;61996;49.910;35.562;2023-02-28T05:27:36;100220.16;;;20.49;34.83
73692;BME280;61996;49.910;35.562;2023-02-28T05:30:38;100216.94;;;20.46;34.74
73692;BME280;61996;49.910;35.562;2023-02-28T05:33:42;100238.53;;;20.43;34.83
73692;BME280;61996;49.910;35.562;2023-02-28T05:36:45;100248.78;;;20.38;34.98
73692;BME280;61996;49.910;35.562;2023-02-28T05:39:50;100241.03;;;20.35;34.85
73692;BME280;61996;49.910;35.562;2023-02-28T05:42:53;100239.88;;;20.27;34.88
73692;BME280;61996;49.910;35.562;2023-02-28T05:45:56;100240.84;;;20.26;35.09
73692;BME280;61996;49.910;35.562;2023-02-28T05:48:59;100247.69;;;20.19;35.03
73692;BME280;61996;49.910;35.562;2023-02-28T05:52:02;100249.78;;;20.16;35.09
73692;BME280;61996;49.910;35.562;2023-02-28T05:55:09;100249.22;;;20.12;35.04
73692;BME280;61996;49.910;35.562;2023-02-28T05:58:14;100253.84;;;20.10;35.18
73692;BME280;61996;49.910;35.562;2023-02-28T06:01:22;100242.94;;;20.02;35.28
73692;BME280;61996;49.910;35.562;2023-02-28T06:04:27;100240.56;;;19.99;35.40
73692;BME280;61996;49.910;35.562;2023-02-28T06:07:32;100240.38;;;19.91;35.38
73692;BME280;61996;49.910;35.562;2023-02-28T06:10:37;100240.25;;;19.92;35.45
73692;BME280;61996;49.910;35.562;2023-02-28T06:13:40;100234.06;;;19.92;35.21
73692;BME280;61996;49.910;35.562;2023-02-28T06:16:43;100237.94;;;19.88;35.53
73692;BME280;61996;49.910;35.562;2023-02-28T06:19:46;100241.03;;;19.83;35.46
73692;BME280;61996;49.910;35.562;2023-02-28T06:22:49;100238.94;;;19.87;35.48
73692;BME280;61996;49.910;35.562;2023-02-28T06:25:54;100236.13;;;19.88;35.42
73692;BME280;61996;49.910;35.562;2023-02-28T06:28:59;100227.53;;;19.85;35.35
73692;BME280;61996;49.910;35.562;2023-02-28T06:32:02;100235.41;;;19.86;35.38
73692;BME280;61996;49.910;35.562;2023-02-28T06:35:07;100230.34;;;19.83;35.36
73692;BME280;61996;49.910;35.562;2023-02-28T06:38:10;100247.22;;;19.84;35.26
73692;BME280;61996;49.910;35.562;2023-02-28T06:41:14;100234.97;;;19.81;35.59
73692;BME280;61996;49.910;35.562;2023-02-28T06:44:17;100241.28;;;19.80;35.44
73692;BME280;61996;49.910;35.562;2023-02-28T06:47:20;100243.09;;;19.80;35.50
73692;BME280;61996;49.910;35.562;2023-02-28T06:50:23;100237.91;;;19.78;35.47
73692;BME280;61996;49.910;35.562;2023-02-28T06:53:26;100244.34;;;19.76;35.44
73692;BME280;61996;49.910;35.562;2023-02-28T06:56:30;100244.34;;;19.76;35.53
73692;BME280;61996;49.910;35.562;2023-02-28T06:59:34;100238.03;;;19.77;35.41
73692;BME280;61996;49.910;35.562;2023-02-28T07:02:37;100234.63;;;19.75;35.61
73692;BME280;61996;49.910;35.562;2023-02-28T07:05:40;100227.59;;;19.74;35.40
73692;BME280;61996;49.910;35.562;2023-02-28T07:08:43;100224.09;;;19.73;35.34
73692;BME280;61996;49.910;35.562;2023-02-28T07:11:49;100219.59;;;19.74;35.28
73692;BME280;61996;49.910;35.562;2023-02-28T07:14:52;100215.38;;;19.71;35.43
73692;BME280;61996;49.910;35.562;2023-02-28T07:17:55;100217.06;;;19.72;35.52
73692;BME280;61996;49.910;35.562;2023-02-28T07:21:01;100227.88;;;19.70;35.47
73692;BME280;61996;49.910;35.562;2023-02-28T07:24:04;100228.00;;;19.69;35.36
73692;BME280;61996;49.910;35.562;2023-02-28T07:27:08;100229.00;;;19.68;35.30
73692;BME280;61996;49.910;35.562;2023-02-28T07:30:13;100224.59;;;19.67;35.30
73692;BME280;61996;49.910;35.562;2023-02-28T07:33:15;100221.84;;;19.68;35.30
73692;BME280;61996;49.910;35.562;2023-02-28T07:36:18;100231.66;;;19.68;35.27
73692;BME280;61996;49.910;35.562;2023-02-28T07:39:23;100227.16;;;19.68;35.28
73692;BME280;61996;49.910;35.562;2023-02-28T07:42:27;100228.25;;;19.66;35.23
73692;BME280;61996;49.910;35.562;2023-02-28T07:45:30;100229.38;;;19.63;35.29
73692;BME280;61996;49.910;35.562;2023-02-28T07:48:35;100233.88;;;19.63;35.38
73692;BME280;61996;49.910;35.562;2023-02-28T07:51:38;100235.56;;;19.64;35.29
73692;BME280;61996;49.910;35.562;2023-02-28T07:54:41;100238.09;;;19.65;35.31
73692;BME280;61996;49.910;35.562;2023-02-28T07:57:45;100247.06;;;19.64;35.30
73692;BME280;61996;49.910;35.562;2023-02-28T08:00:48;100254.94;;;19.66;35.59
73692;BME280;61996;49.910;35.562;2023-02-28T08:03:51;100256.06;;;19.63;35.29
73692;BME280;61996;49.910;35.562;2023-02-28T08:06:56;100255.22;;;19.63;35.25
73692;BME280;61996;49.910;35.562;2023-02-28T08:09:59;100251.81;;;19.61;35.17
73692;BME280;61996;49.910;35.562;2023-02-28T08:13:03;100250.00;;;19.61;35.19
73692;BME280;61996;49.910;35.562;2023-02-28T08:16:06;100239.34;;;19.61;35.14
73692;BME280;61996;49.910;35.562;2023-02-28T08:19:11;100242.25;;;19.58;35.08
73692;BME280;61996;49.910;35.562;2023-02-28T08:22:13;100244.78;;;19.60;35.26
73692;BME280;61996;49.910;35.562;2023-02-28T08:25:17;100244.53;;;19.63;35.04
73692;BME280;61996;49.910;35.562;2023-02-28T08:28:21;100242.00;;;19.61;35.14
73692;BME280;61996;49.910;35.562;2023-02-28T08:31:27;100236.66;;;19.61;35.13
73692;BME280;61996;49.910;35.562;2023-02-28T08:34:34;100237.63;;;19.60;35.14
73692;BME280;61996;49.910;35.562;2023-02-28T08:37:37;100240.28;;;19.60;35.16
73692;BME280;61996;49.910;35.562;2023-02-28T08:40:40;100240.41;;;19.59;35.15
73692;BME280;61996;49.910;35.562;2023-02-28T08:43:47;100239.44;;;19.60;35.19
73692;BME280;61996;49.910;35.562;2023-02-28T08:46:51;100246.84;;;19.56;35.13
73692;BME280;61996;49.910;35.562;2023-02-28T08:49:54;100236.91;;;19.58;35.07
73692;BME280;61996;49.910;35.562;2023-02-28T08:52:57;100240.56;;;19.57;35.03
73692;BME280;61996;49.910;35.562;2023-02-28T08:56:02;100241.63;;;19.55;35.21
73692;BME280;61996;49.910;35.562;2023-02-28T08:59:09;100234.72;;;19.52;35.10
73692;BME280;61996;49.910;35.562;2023-02-28T09:02:12;100241.88;;;19.52;35.10
73692;BME280;61996;49.910;35.562;2023-02-28T09:05:15;100240.28;;;19.60;34.96
73692;BME280;61996;49.910;35.562;2023-02-28T09:08:18;100241.47;;;19.67;34.71
73692;BME280;61996;49.910;35.562;2023-02-28T09:11:24;100234.53;;;19.76;34.65
73692;BME280;61996;49.910;35.562;2023-02-28T09:14:29;100234.44;;;19.87;34.52
73692;BME280;61996;49.910;35.562;2023-02-28T09:17:32;100223.94;;;19.95;34.38
73692;BME280;61996;49.910;35.562;2023-02-28T09:20:36;100217.97;;;20.03;34.28
73692;BME280;61996;49.910;35.562;2023-02-28T09:23:39;100213.50;;;20.13;34.02
73692;BME280;61996;49.910;35.562;2023-02-28T09:26:42;100219.31;;;20.18;33.94
73692;BME280;61996;49.910;35.562;2023-02-28T09:30:06;100213.00;;;20.29;33.83
73692;BME280;61996;49.910;35.562;2023-02-28T09:33:09;100208.41;;;20.31;33.77
73692;BME280;61996;49.910;35.562;2023-02-28T09:36:13;100206.44;;;20.33;33.80
73692;BME280;61996;49.910;35.562;2023-02-28T09:39:16;100204.47;;;20.35;33.74
73692;BME280;61996;49.910;35.562;2023-02-28T09:42:22;100204.31;;;20.37;33.72
73692;BME280;61996;49.910;35.562;2023-02-28T09:45:30;100201.13;;;20.43;33.58
73692;BME280;61996;49.910;35.562;2023-02-28T09:48:37;100178.75;;;20.44;33.62
73692;BME280;61996;49.910;35.562;2023-02-28T09:51:46;100184.09;;;20.44;33.55
73692;BME280;61996;49.910;35.562;2023-02-28T09:54:52;100175.88;;;20.47;33.58
73692;BME280;61996;49.910;35.562;2023-02-28T09:57:55;100165.75;;;20.50;33.42
73692;BME280;61996;49.910;35.562;2023-02-28T10:01:04;100163.22;;;20.49;33.61
73692;BME280;61996;49.910;35.562;2023-02-28T10:04:11;100160.97;;;20.54;33.36
73692;BME280;61996;49.910;35.562;2023-02-28T10:07:20;100150.84;;;20.58;33.49
73692;BME280;61996;49.910;35.562;2023-02-28T10:10:25;100148.63;;;20.63;33.26
73692;BME280;61996;49.910;35.562;2023-02-28T10:13:32;100144.81;;;20.65;33.35
73692;BME280;61996;49.910;35.562;2023-02-28T10:16:38;100145.78;;;20.64;33.35
73692;BME280;61996;49.910;35.562;2023-02-28T10:19:45;100146.09;;;20.71;33.24
73692;BME280;61996;49.910;35.562;2023-02-28T10:22:51;100142.44;;;20.72;33.24
73692;BME280;61996;49.910;35.562;2023-02-28T10:25:57;100137.97;;;20.72;33.15
73692;BME280;61996;49.910;35.562;2023-02-28T10:29:01;100138.66;;;20.84;33.36
73692;BME280;61996;49.910;35.562;2023-02-28T10:32:05;100121.63;;;20.75;33.33
73692;BME280;61996;49.910;35.562;2023-02-28T10:35:10;100130.19;;;20.79;33.28
73692;BME280;61996;49.910;35.562;2023-02-28T10:38:18;100121.34;;;20.78;33.16
73692;BME280;61996;49.910;35.562;2023-02-28T10:41:28;100122.19;;;20.79;33.30
73692;BME280;61996;49.910;35.562;2023-02-28T10:44:37;100120.38;;;20.79;33.21
73692;BME280;61996;49.910;35.562;2023-02-28T10:47:49;100121.50;;;20.87;33.12
73692;BME280;61996;49.910;35.562;2023-02-28T10:50:55;100107.31;;;20.86;33.26
73692;BME280;61996;49.910;35.562;2023-02-28T10:53:59;100114.03;;;20.90;33.11
73692;BME280;61996;49.910;35.562;2023-02-28T10:57:09;100106.00;;;20.90;33.10
73692;BME280;61996;49.910;35.562;2023-02-28T11:00:18;100104.88;;;20.93;33.15
73692;BME280;61996;49.910;35.562;2023-02-28T11:03:29;100098.28;;;20.87;33.16
73692;BME280;61996;49.910;35.562;2023-02-28T11:06:32;100098.69;;;20.83;33.24
73692;BME280;61996;49.910;35.562;2023-02-28T11:09:38;100091.66;;;20.82;33.33
73692;BME280;61996;49.910;35.562;2023-02-28T11:12:41;100096.31;;;20.79;33.35
73692;BME280;61996;49.910;35.562;2023-02-28T11:15:53;100091.81;;;20.80;33.55
73692;BME280;61996;49.910;35.562;2023-02-28T11:18:58;100088.56;;;20.76;33.67
73692;BME280;61996;49.910;35.562;2023-02-28T11:22:02;100094.31;;;20.72;34.12
73692;BME280;61996;49.910;35.562;2023-02-28T11:25:07;100090.41;;;20.66;34.28
73692;BME280;61996;49.910;35.562;2023-02-28T11:28:22;100089.69;;;20.64;34.07
73692;BME280;61996;49.910;35.562;2023-02-28T11:31:26;100097.16;;;20.61;34.26
73692;BME280;61996;49.910;35.562;2023-02-28T11:34:33;100088.88;;;20.23;33.19
73692;BME280;61996;49.910;35.562;2023-02-28T11:37:38;100095.41;;;20.40;34.30
73692;BME280;61996;49.910;35.562;2023-02-28T11:40:42;100092.56;;;20.42;34.18
73692;BME280;61996;49.910;35.562;2023-02-28T11:44:04;100094.56;;;20.40;33.95
73692;BME280;61996;49.910;35.562;2023-02-28T11:47:09;100092.56;;;20.32;34.55
73692;BME280;61996;49.910;35.562;2023-02-28T11:53:47;100095.38;;;20.31;34.21
73692;BME280;61996;49.910;35.562;2023-02-28T11:56:54;100095.94;;;20.24;34.29
73692;BME280;61996;49.910;35.562;2023-02-28T11:59:59;100088.81;;;20.44;34.16
73692;BME280;61996;49.910;35.562;2023-02-28T12:03:12;100081.31;;;20.29;35.12
73692;BME280;61996;49.910;35.562;2023-02-28T12:06:21;100087.63;;;20.18;35.32
73692;BME280;61996;49.910;35.562;2023-02-28T12:09:33;100082.28;;;20.18;36.85
73692;BME280;61996;49.910;35.562;2023-02-28T12:12:38;100092.53;;;20.22;36.93
73692;BME280;61996;49.910;35.562;2023-02-28T12:15:50;100084.25;;;20.35;36.84
73692;BME280;61996;49.910;35.562;2023-02-28T12:19:09;100078.22;;;20.43;37.08
73692;BME280;61996;49.910;35.562;2023-02-28T12:25:43;100062.97;;;20.45;36.85
73692;BME280;61996;49.910;35.562;2023-02-28T12:28:51;100070.41;;;20.61;36.53
73692;BME280;61996;49.910;35.562;2023-02-28T12:31:56;100068.31;;;20.55;36.68
73692;BME280;61996;49.910;35.562;2023-02-28T12:35:06;100060.56;;;20.61;36.55
73692;BME280;61996;49.910;35.562;2023-02-28T12:38:14;100058.88;;;20.70;36.29
73692;BME280;61996;49.910;35.562;2023-02-28T12:41:26;100053.00;;;20.66;36.51
73692;BME280;61996;49.910;35.562;2023-02-28T12:44:34;100057.91;;;20.61;36.45
73692;BME280;61996;49.910;35.562;2023-02-28T12:47:40;100059.44;;;20.54;37.16
73692;BME280;61996;49.910;35.562;2023-02-28T12:50:44;100055.88;;;20.44;36.95
73692;BME280;61996;49.910;35.562;2023-02-28T12:53:54;100048.16;;;20.41;35.98
73692;BME280;61996;49.910;35.562;2023-02-28T12:57:02;100045.09;;;20.45;36.21
73692;BME280;61996;49.910;35.562;2023-02-28T13:00:10;100041.97;;;20.40;36.60
73692;BME280;61996;49.910;35.562;2023-02-28T13:03:28;100032.13;;;20.41;36.13
73692;BME280;61996;49.910;35.562;2023-02-28T13:06:42;100042.13;;;20.39;36.21
73692;BME280;61996;49.910;35.562;2023-02-28T13:09:52;100033.50;;;20.35;36.16
73692;BME280;61996;49.910;35.562;2023-02-28T13:12:56;100035.50;;;20.33;36.07
73692;BME280;61996;49.910;35.562;2023-02-28T13:16:00;100027.75;;;20.30;36.12
73692;BME280;61996;49.910;35.562;2023-02-28T13:19:11;100028.31;;;20.24;35.99
73692;BME280;61996;49.910;35.562;2023-02-28T13:22:19;100026.75;;;20.21;35.91
73692;BME280;61996;49.910;35.562;2023-02-28T13:29:00;100030.41;;;20.20;35.97
73692;BME280;61996;49.910;35.562;2023-02-28T13:32:25;100017.19;;;20.29;35.73
73692;BME280;61996;49.910;35.562;2023-02-28T13:35:35;100018.75;;;20.41;35.54
73692;BME280;61996;49.910;35.562;2023-02-28T13:38:39;100016.00;;;20.52;35.24
73692;BME280;61996;49.910;35.562;2023-02-28T13:41:46;100015.84;;;20.53;35.26
73692;BME280;61996;49.910;35.562;2023-02-28T13:48:17;100020.63;;;20.69;34.76
73692;BME280;61996;49.910;35.562;2023-02-28T13:58:24;100003.03;;;20.76;34.60
73692;BME280;61996;49.910;35.562;2023-02-28T14:01:41;100003.56;;;20.99;34.08
73692;BME280;61996;49.910;35.562;2023-02-28T14:05:01;99994.13;;;21.05;34.28
73692;BME280;61996;49.910;35.562;2023-02-28T14:08:05;99998.94;;;21.01;34.23
73692;BME280;61996;49.910;35.562;2023-02-28T14:11:15;99999.78;;;21.02;34.24
73692;BME280;61996;49.910;35.562;2023-02-28T14:17:55;99980.63;;;20.97;34.27
73692;BME280;61996;49.910;35.562;2023-02-28T14:21:03;99982.03;;;21.01;34.06
73692;BME280;61996;49.910;35.562;2023-02-28T14:24:23;99975.97;;;21.08;34.22
73692;BME280;61996;49.910;35.562;2023-02-28T14:27:39;99981.06;;;21.02;34.22
73692;BME280;61996;49.910;35.562;2023-02-28T14:30:56;99979.72;;;21.25;34.08
73692;BME280;61996;49.910;35.562;2023-02-28T14:34:16;99968.09;;;21.07;34.71
73692;BME280;61996;49.910;35.562;2023-02-28T14:37:26;99975.41;;;21.05;34.97
73692;BME280;61996;49.910;35.562;2023-02-28T14:40:30;99963.59;;;21.07;34.92
73692;BME280;61996;49.910;35.562;2023-02-28T14:43:34;99965.69;;;21.04;34.82
73692;BME280;61996;49.910;35.562;2023-02-28T14:46:41;99967.53;;;21.03;34.67
73692;BME280;61996;49.910;35.562;2023-02-28T14:49:46;99958.81;;;21.01;34.76
73692;BME280;61996;49.910;35.562;2023-02-28T14:52:53;99964.03;;;21.03;34.68
73692;BME280;61996;49.910;35.562;2023-02-28T14:55:56;99957.16;;;21.00;34.71
73692;BME280;61996;49.910;35.562;2023-02-28T14:59:01;99954.00;;;21.15;34.35
73692;BME280;61996;49.910;35.562;2023-02-28T15:02:14;99944.78;;;21.27;34.07
73692;BME280;61996;49.910;35.562;2023-02-28T15:05:27;99942.59;;;21.13;34.92
73692;BME280;61996;49.910;35.562;2023-02-28T15:08:32;99947.81;;;21.14;34.55
73692;BME280;61996;49.910;35.562;2023-02-28T15:11:37;99949.09;;;21.10;34.67
73692;BME280;61996;49.910;35.562;2023-02-28T15:14:42;99948.66;;;21.15;34.55
73692;BME280;61996;49.910;35.562;2023-02-28T15:17:53;99961.72;;;21.18;34.30
73692;BME280;61996;49.910;35.562;2023-02-28T15:21:03;99959.78;;;21.10;34.39
73692;BME280;61996;49.910;35.562;2023-02-28T15:24:10;99946.66;;;21.17;34.32
73692;BME280;61996;49.910;35.562;2023-02-28T15:27:20;99953.00;;;21.16;34.30
73692;BME280;61996;49.910;35.562;2023-02-28T15:30:25;99948.78;;;21.13;34.12
73692;BME280;61996;49.910;35.562;2023-02-28T15:33:29;99950.03;;;21.19;34.18
73692;BME280;61996;49.910;35.562;2023-02-28T15:36:32;99949.34;;;21.17;34.32
73692;BME280;61996;49.910;35.562;2023-02-28T15:39:42;99943.44;;;21.13;34.45
73692;BME280;61996;49.910;35.562;2023-02-28T15:42:57;99944.94;;;21.25;34.24
73692;BME280;61996;49.910;35.562;2023-02-28T15:46:00;99945.94;;;21.24;34.18
73692;BME280;61996;49.910;35.562;2023-02-28T15:49:04;99950.97;;;21.27;34.33
73692;BME280;61996;49.910;35.562;2023-02-28T15:52:09;99960.97;;;21.25;34.20
73692;BME280;61996;49.910;35.562;2023-02-28T15:55:18;99957.63;;;21.23;34.02
73692;BME280;61996;49.910;35.562;2023-02-28T15:58:21;99961.13;;;21.24;33.84
73692;BME280;61996;49.910;35.562;2023-02-28T16:01:27;99965.66;;;21.23;34.00
73692;BME280;61996;49.910;35.562;2023-02-28T16:04:31;99963.13;;;21.22;33.93
73692;BME280;61996;49.910;35.562;2023-02-28T16:07:34;99979.03;;;21.23;34.07
73692;BME280;61996;49.910;35.562;2023-02-28T16:10:39;99974.66;;;21.22;33.93
73692;BME280;61996;49.910;35.562;2023-02-28T16:13:42;99968.47;;;21.22;34.02
73692;BME280;61996;49.910;35.562;2023-02-28T16:16:45;99977.47;;;21.21;33.88
73692;BME280;61996;49.910;35.562;2023-02-28T16:19:48;99971.69;;;21.25;33.81
73692;BME280;61996;49.910;35.562;2023-02-28T16:22:51;99965.66;;;21.14;33.90
73692;BME280;61996;49.910;35.562;2023-02-28T16:26:02;99972.00;;;21.13;33.98
73692;BME280;61996;49.910;35.562;2023-02-28T16:29:05;99960.50;;;21.02;34.17
73692;BME280;61996;49.910;35.562;2023-02-28T16:32:10;99966.28;;;20.98;34.33
73692;BME280;61996;49.910;35.562;2023-02-28T16:35:14;99961.38;;;20.93;34.12